sensor_id;sensor_type;location;lat;lon;timestamp;pressure;altitude;pressure_sealevel;temperature;humidity
30421;BME280;17218;54.070;10.012;2024-03-29T00:01:21;99116.19;;;6.66;100.00
30421;BME280;17218;54.070;10.012;2024-03-29T00:03:47;99113.78;;;6.58;100.00
30421;BME280;17218;54.070;10.012;2024-03-29T00:06:14;99106.88;;;6.59;100.00
30421;BME280;17218;54.070;10.012;2024-03-29T00:08:39;99119.63;;;6.66;100.00
30421;BME280;17218;54.070;10.012;2024-03-29T00:11:05;99129.16;;;6.61;100.00
30421;BME280;17218;54.070;10.012;2024-03-29T00:13:30;99127.38;;;6.65;100.00
30421;BME280;17218;54.070;10.012;2024-03-29T00:15:56;99117.19;;;6.57;100.00
30421;BME280;17218;54.070;10.012;2024-03-29T00:18:22;99120.56;;;6.61;100.00
30421;BME280;17218;54.070;10.012;2024-03-29T00:20:47;99121.50;;;6.58;100.00
30421;BME280;17218;54.070;10.012;2024-03-29T00:23:14;99118.22;;;6.48;100.00
30421;BME280;17218;54.070;10.012;2024-03-29T00:25:40;99120.16;;;6.34;100.00
30421;BME280;17218;54.070;10.012;2024-03-29T00:28:05;99125.34;;;6.32;100.00
30421;BME280;17218;54.070;10.012;2024-03-29T00:30:31;99129.44;;;6.42;100.00
30421;BME280;17218;54.070;10.012;2024-03-29T00:32:57;99128.69;;;6.37;100.00
30421;BME280;17218;54.070;10.012;2024-03-29T00:35:22;99119.34;;;6.31;100.00
30421;BME280;17218;54.070;10.012;2024-03-29T00:37:48;99121.84;;;6.35;100.00
30421;BME280;17218;54.070;10.012;2024-03-29T00:40:16;99124.38;;;6.38;100.00
30421;BME280;17218;54.070;10.012;2024-03-29T00:42:41;99120.00;;;6.43;100.00
30421;BME280;17218;54.070;10.012;2024-03-29T00:45:07;99131.25;;;6.37;100.00
30421;BME280;17218;54.070;10.012;2024-03-29T00:47:33;99130.34;;;6.41;100.00
30421;BME280;17218;54.070;10.012;2024-03-29T00:49:59;99133.06;;;6.29;100.00
30421;BME280;17218;54.070;10.012;2024-03-29T00:52:25;99125.50;;;6.21;100.00
30421;BME280;17218;54.070;10.012;2024-03-29T00:54:51;99127.13;;;6.27;100.00
30421;BME280;17218;54.070;10.012;2024-03-29T00:57:18;99121.78;;;6.39;100.00
30421;BME280;17218;54.070;10.012;2024-03-29T00:59:44;99125.34;;;6.29;100.00
30421;BME280;17218;54.070;10.012;2024-03-29T01:02:09;99122.72;;;6.34;100.00
30421;BME280;17218;54.070;10.012;2024-03-29T01:04:35;99119.28;;;6.35;100.00
30421;BME280;17218;54.070;10.012;2024-03-29T01:07:01;99115.94;;;6.29;100.00
30421;BME280;17218;54.070;10.012;2024-03-29T01:09:26;99130.69;;;6.16;100.00
30421;BME280;17218;54.070;10.012;2024-03-29T01:11:52;99129.91;;;6.13;100.00
30421;BME280;17218;54.070;10.012;2024-03-29T01:14:19;99132.53;;;6.05;100.00
30421;BME280;17218;54.070;10.012;2024-03-29T01:16:45;99141.13;;;6.04;100.00
30421;BME280;17218;54.070;10.012;2024-03-29T01:19:10;99133.38;;;6.08;100.00
30421;BME280;17218;54.070;10.012;2024-03-29T01:21:36;99124.91;;;6.00;100.00
30421;BME280;17218;54.070;10.012;2024-03-29T01:24:02;99130.13;;;5.94;100.00
30421;BME280;17218;54.070;10.012;2024-03-29T01:26:27;99130.09;;;5.95;100.00
30421;BME280;17218;54.070;10.012;2024-03-29T01:28:53;99118.91;;;6.00;100.00
30421;BME280;17218;54.070;10.012;2024-03-29T01:31:21;99120.66;;;5.97;100.00
30421;BME280;17218;54.070;10.012;2024-03-29T01:33:47;99126.66;;;5.96;100.00
30421;BME280;17218;54.070;10.012;2024-03-29T01:36:12;99127.72;;;5.83;100.00
30421;BME280;17218;54.070;10.012;2024-03-29T01:38:38;99129.53;;;5.75;100.00
30421;BME280;17218;54.070;10.012;2024-03-29T01:41:04;99139.81;;;5.75;100.00
30421;BME280;17218;54.070;10.012;2024-03-29T01:43:30;99143.22;;;5.77;100.00
30421;BME280;17218;54.070;10.012;2024-03-29T01:45:56;99140.69;;;5.73;100.00
30421;BME280;17218;54.070;10.012;2024-03-29T01:48:25;99138.78;;;5.87;100.00
30421;BME280;17218;54.070;10.012;2024-03-29T01:50:55;99145.78;;;5.77;100.00
30421;BME280;17218;54.070;10.012;2024-03-29T01:53:23;99136.47;;;5.69;100.00
30421;BME280;17218;54.070;10.012;2024-03-29T01:55:51;99139.97;;;5.64;100.00
30421;BME280;17218;54.070;10.012;2024-03-29T01:58:18;99127.22;;;5.56;100.00
30421;BME280;17218;54.070;10.012;2024-03-29T02:00:51;99126.31;;;5.57;100.00
30421;BME280;17218;54.070;10.012;2024-03-29T02:03:18;99133.94;;;5.65;100.00
30421;BME280;17218;54.070;10.012;2024-03-29T02:05:46;99136.34;;;5.77;100.00
30421;BME280;17218;54.070;10.012;2024-03-29T02:08:13;99147.63;;;5.67;100.00
30421;BME280;17218;54.070;10.012;2024-03-29T02:10:40;99132.22;;;5.67;100.00
30421;BME280;17218;54.070;10.012;2024-03-29T02:13:07;99139.84;;;5.73;100.00
30421;BME280;17218;54.070;10.012;2024-03-29T02:15:33;99134.81;;;5.65;100.00
30421;BME280;17218;54.070;10.012;2024-03-29T02:17:59;99142.44;;;5.70;100.00
30421;BME280;17218;54.070;10.012;2024-03-29T02:20:25;99139.06;;;5.66;100.00
30421;BME280;17218;54.070;10.012;2024-03-29T02:22:55;99136.59;;;5.58;100.00
30421;BME280;17218;54.070;10.012;2024-03-29T02:25:25;99139.09;;;5.65;100.00
30421;BME280;17218;54.070;10.012;2024-03-29T02:27:53;99145.16;;;5.57;100.00
30421;BME280;17218;54.070;10.012;2024-03-29T02:30:20;99152.03;;;5.58;100.00
30421;BME280;17218;54.070;10.012;2024-03-29T02:32:47;99151.28;;;5.48;100.00
30421;BME280;17218;54.070;10.012;2024-03-29T02:35:13;99152.09;;;5.52;100.00
30421;BME280;17218;54.070;10.012;2024-03-29T02:37:40;99152.03;;;5.55;100.00
30421;BME280;17218;54.070;10.012;2024-03-29T02:40:07;99158.06;;;5.54;100.00
30421;BME280;17218;54.070;10.012;2024-03-29T02:42:35;99149.44;;;5.58;100.00
30421;BME280;17218;54.070;10.012;2024-03-29T02:45:02;99152.13;;;5.49;100.00
30421;BME280;17218;54.070;10.012;2024-03-29T02:47:29;99157.19;;;5.55;100.00
30421;BME280;17218;54.070;10.012;2024-03-29T02:49:56;99151.19;;;5.53;100.00
30421;BME280;17218;54.070;10.012;2024-03-29T02:52:21;99146.97;;;5.51;100.00
30421;BME280;17218;54.070;10.012;2024-03-29T02:54:48;99152.91;;;5.54;100.00
30421;BME280;17218;54.070;10.012;2024-03-29T02:57:13;99162.28;;;5.58;100.00
30421;BME280;17218;54.070;10.012;2024-03-29T02:59:41;99157.16;;;5.57;100.00
30421;BME280;17218;54.070;10.012;2024-03-29T03:02:07;99163.13;;;5.59;100.00
30421;BME280;17218;54.070;10.012;2024-03-29T03:04:33;99158.91;;;5.53;100.00
30421;BME280;17218;54.070;10.012;2024-03-29T03:06:59;99158.97;;;5.48;100.00
30421;BME280;17218;54.070;10.012;2024-03-29T03:09:46;99163.31;;;5.43;100.00
30421;BME280;17218;54.070;10.012;2024-03-29T03:12:30;99164.16;;;5.45;100.00
30421;BME280;17218;54.070;10.012;2024-03-29T03:14:58;99171.88;;;5.45;100.00
30421;BME280;17218;54.070;10.012;2024-03-29T03:17:25;99154.69;;;5.47;100.00
30421;BME280;17218;54.070;10.012;2024-03-29T03:19:52;99148.69;;;5.50;100.00
30421;BME280;17218;54.070;10.012;2024-03-29T03:22:17;99149.56;;;5.46;100.00
30421;BME280;17218;54.070;10.012;2024-03-29T03:24:44;99150.47;;;5.43;100.00
30421;BME280;17218;54.070;10.012;2024-03-29T03:27:10;99138.47;;;5.45;100.00
30421;BME280;17218;54.070;10.012;2024-03-29T03:29:36;99130.69;;;5.52;100.00
30421;BME280;17218;54.070;10.012;2024-03-29T03:32:05;99132.53;;;5.42;100.00
30421;BME280;17218;54.070;10.012;2024-03-29T03:34:32;99129.94;;;5.40;100.00
30421;BME280;17218;54.070;10.012;2024-03-29T03:36:57;99130.03;;;5.34;100.00
30421;BME280;17218;54.070;10.012;2024-03-29T03:39:24;99121.50;;;5.32;100.00
30421;BME280;17218;54.070;10.012;2024-03-29T03:41:50;99119.81;;;5.29;100.00
30421;BME280;17218;54.070;10.012;2024-03-29T03:44:16;99126.56;;;5.36;100.00
30421;BME280;17218;54.070;10.012;2024-03-29T03:46:42;99133.47;;;5.33;100.00
30421;BME280;17218;54.070;10.012;2024-03-29T03:49:10;99135.97;;;5.39;100.00
30421;BME280;17218;54.070;10.012;2024-03-29T03:51:35;99130.91;;;5.33;100.00
30421;BME280;17218;54.070;10.012;2024-03-29T03:54:02;99134.34;;;5.32;100.00
30421;BME280;17218;54.070;10.012;2024-03-29T03:56:28;99143.81;;;5.28;100.00
30421;BME280;17218;54.070;10.012;2024-03-29T03:58:54;99133.56;;;5.27;100.00
30421;BME280;17218;54.070;10.012;2024-03-29T04:08:04;99167.03;;;5.17;100.00
30421;BME280;17218;54.070;10.012;2024-03-29T04:10:31;99175.59;;;5.18;100.00
30421;BME280;17218;54.070;10.012;2024-03-29T04:12:56;99179.88;;;5.16;100.00
30421;BME280;17218;54.070;10.012;2024-03-29T04:15:23;99182.44;;;5.16;100.00
30421;BME280;17218;54.070;10.012;2024-03-29T04:17:49;99179.00;;;5.17;100.00
30421;BME280;17218;54.070;10.012;2024-03-29T04:20:15;99190.06;;;5.22;100.00
30421;BME280;17218;54.070;10.012;2024-03-29T04:22:41;99187.50;;;5.25;100.00
30421;BME280;17218;54.070;10.012;2024-03-29T04:25:10;99189.19;;;5.26;100.00
30421;BME280;17218;54.070;10.012;2024-03-29T04:27:35;99173.00;;;5.18;100.00
30421;BME280;17218;54.070;10.012;2024-03-29T04:30:02;99171.31;;;5.15;100.00
30421;BME280;17218;54.070;10.012;2024-03-29T04:32:28;99176.41;;;5.18;100.00
30421;BME280;17218;54.070;10.012;2024-03-29T04:34:55;99167.94;;;5.11;100.00
30421;BME280;17218;54.070;10.012;2024-03-29T04:37:21;99174.88;;;5.00;100.00
30421;BME280;17218;54.070;10.012;2024-03-29T04:39:48;99160.31;;;5.02;100.00
30421;BME280;17218;54.070;10.012;2024-03-29T04:42:16;99162.91;;;5.00;100.00
30421;BME280;17218;54.070;10.012;2024-03-29T04:44:42;99161.28;;;4.93;100.00
30421;BME280;17218;54.070;10.012;2024-03-29T04:47:09;99162.16;;;4.89;100.00
30421;BME280;17218;54.070;10.012;2024-03-29T04:49:35;99169.84;;;4.91;100.00
30421;BME280;17218;54.070;10.012;2024-03-29T04:52:03;99170.66;;;4.94;100.00
30421;BME280;17218;54.070;10.012;2024-03-29T04:54:30;99166.34;;;4.98;100.00
30421;BME280;17218;54.070;10.012;2024-03-29T04:56:57;99154.47;;;4.89;100.00
30421;BME280;17218;54.070;10.012;2024-03-29T04:59:25;99158.78;;;4.85;100.00
30421;BME280;17218;54.070;10.012;2024-03-29T05:01:51;99163.09;;;4.80;100.00
30421;BME280;17218;54.070;10.012;2024-03-29T05:04:20;99155.38;;;4.83;100.00
30421;BME280;17218;54.070;10.012;2024-03-29T05:06:51;99164.69;;;4.95;100.00
30421;BME280;17218;54.070;10.012;2024-03-29T05:09:18;99172.44;;;4.87;100.00
30421;BME280;17218;54.070;10.012;2024-03-29T05:11:45;99180.16;;;4.84;100.00
30421;BME280;17218;54.070;10.012;2024-03-29T05:14:12;99182.69;;;4.87;100.00
30421;BME280;17218;54.070;10.012;2024-03-29T05:16:41;99189.44;;;4.98;100.00
30421;BME280;17218;54.070;10.012;2024-03-29T05:19:07;99180.00;;;5.01;100.00
30421;BME280;17218;54.070;10.012;2024-03-29T05:21:34;99175.69;;;5.08;100.00
30421;BME280;17218;54.070;10.012;2024-03-29T05:24:00;99183.31;;;5.13;100.00
30421;BME280;17218;54.070;10.012;2024-03-29T05:26:27;99183.25;;;5.21;100.00
30421;BME280;17218;54.070;10.012;2024-03-29T05:28:53;99192.59;;;5.27;100.00
30421;BME280;17218;54.070;10.012;2024-03-29T05:31:23;99196.81;;;5.31;100.00
30421;BME280;17218;54.070;10.012;2024-03-29T05:33:51;99189.97;;;5.31;100.00
30421;BME280;17218;54.070;10.012;2024-03-29T05:36:17;99187.41;;;5.31;100.00
30421;BME280;17218;54.070;10.012;2024-03-29T05:38:47;99184.75;;;5.39;100.00
30421;BME280;17218;54.070;10.012;2024-03-29T05:41:13;99192.44;;;5.41;100.00
30421;BME280;17218;54.070;10.012;2024-03-29T05:43:40;99207.78;;;5.48;100.00
30421;BME280;17218;54.070;10.012;2024-03-29T05:46:06;99189.00;;;5.43;100.00
30421;BME280;17218;54.070;10.012;2024-03-29T05:48:33;99194.03;;;5.54;100.00
30421;BME280;17218;54.070;10.012;2024-03-29T05:51:01;99205.03;;;5.63;100.00
30421;BME280;17218;54.070;10.012;2024-03-29T05:53:28;99201.63;;;5.60;100.00
30421;BME280;17218;54.070;10.012;2024-03-29T05:55:54;99205.16;;;5.52;100.00
30421;BME280;17218;54.070;10.012;2024-03-29T05:58:21;99217.91;;;5.61;100.00
30421;BME280;17218;54.070;10.012;2024-03-29T06:00:48;99207.72;;;5.53;100.00
30421;BME280;17218;54.070;10.012;2024-03-29T06:03:14;99206.06;;;5.49;100.00
30421;BME280;17218;54.070;10.012;2024-03-29T06:05:41;99211.97;;;5.57;100.00
30421;BME280;17218;54.070;10.012;2024-03-29T06:08:09;99211.00;;;5.66;100.00
30421;BME280;17218;54.070;10.012;2024-03-29T06:10:36;99202.34;;;5.73;100.00
30421;BME280;17218;54.070;10.012;2024-03-29T06:13:02;99201.44;;;5.78;100.00
30421;BME280;17218;54.070;10.012;2024-03-29T06:15:34;99204.00;;;5.79;100.00
30421;BME280;17218;54.070;10.012;2024-03-29T06:18:15;99216.88;;;5.78;100.00
30421;BME280;17218;54.070;10.012;2024-03-29T06:20:41;99212.63;;;5.73;100.00
30421;BME280;17218;54.070;10.012;2024-03-29T06:23:11;99227.97;;;5.80;100.00
30421;BME280;17218;54.070;10.012;2024-03-29T06:25:38;99227.91;;;5.84;100.00
30421;BME280;17218;54.070;10.012;2024-03-29T06:28:05;99215.81;;;5.94;100.00
30421;BME280;17218;54.070;10.012;2024-03-29T06:30:32;99227.72;;;6.02;100.00
30421;BME280;17218;54.070;10.012;2024-03-29T06:32:58;99220.03;;;5.99;100.00
30421;BME280;17218;54.070;10.012;2024-03-29T06:35:27;99216.56;;;6.03;100.00
30421;BME280;17218;54.070;10.012;2024-03-29T06:37:54;99220.75;;;6.12;100.00
30421;BME280;17218;54.070;10.012;2024-03-29T06:40:23;99217.19;;;6.22;100.00
30421;BME280;17218;54.070;10.012;2024-03-29T06:42:51;99227.50;;;6.20;100.00
30421;BME280;17218;54.070;10.012;2024-03-29T06:45:22;99241.38;;;6.07;100.00
30421;BME280;17218;54.070;10.012;2024-03-29T06:47:48;99249.97;;;6.04;100.00
30421;BME280;17218;54.070;10.012;2024-03-29T06:50:15;99243.09;;;6.08;100.00
30421;BME280;17218;54.070;10.012;2024-03-29T06:52:41;99254.78;;;6.31;100.00
30421;BME280;17218;54.070;10.012;2024-03-29T06:55:08;99229.81;;;6.39;100.00
30421;BME280;17218;54.070;10.012;2024-03-29T06:57:36;99234.78;;;6.52;100.00
30421;BME280;17218;54.070;10.012;2024-03-29T07:00:03;99233.09;;;6.51;100.00
30421;BME280;17218;54.070;10.012;2024-03-29T07:02:30;99228.94;;;6.40;100.00
30421;BME280;17218;54.070;10.012;2024-03-29T07:04:57;99222.22;;;6.31;100.00
30421;BME280;17218;54.070;10.012;2024-03-29T07:07:23;99217.88;;;6.35;100.00
30421;BME280;17218;54.070;10.012;2024-03-29T07:09:50;99222.00;;;6.46;100.00
30421;BME280;17218;54.070;10.012;2024-03-29T07:12:16;99228.69;;;6.58;100.00
30421;BME280;17218;54.070;10.012;2024-03-29T07:14:44;99231.00;;;6.76;100.00
30421;BME280;17218;54.070;10.012;2024-03-29T07:17:11;99234.06;;;6.97;100.00
30421;BME280;17218;54.070;10.012;2024-03-29T07:19:37;99234.09;;;6.96;100.00
30421;BME280;17218;54.070;10.012;2024-03-29T07:22:04;99241.81;;;6.96;100.00
30421;BME280;17218;54.070;10.012;2024-03-29T07:24:31;99247.63;;;7.09;100.00
30421;BME280;17218;54.070;10.012;2024-03-29T07:26:57;99244.84;;;7.20;100.00
30421;BME280;17218;54.070;10.012;2024-03-29T07:29:24;99242.25;;;7.23;100.00
30421;BME280;17218;54.070;10.012;2024-03-29T07:31:52;99254.25;;;7.22;100.00
30421;BME280;17218;54.070;10.012;2024-03-29T07:34:19;99254.13;;;7.30;100.00
30421;BME280;17218;54.070;10.012;2024-03-29T07:36:45;99255.56;;;7.47;100.00
30421;BME280;17218;54.070;10.012;2024-03-29T07:39:12;99256.13;;;7.63;100.00
30421;BME280;17218;54.070;10.012;2024-03-29T07:41:39;99263.63;;;7.74;100.00
30421;BME280;17218;54.070;10.012;2024-03-29T07:44:05;99256.94;;;7.65;100.00
30421;BME280;17218;54.070;10.012;2024-03-29T07:46:34;99265.25;;;7.80;100.00
30421;BME280;17218;54.070;10.012;2024-03-29T07:49:03;99273.56;;;7.94;100.00
30421;BME280;17218;54.070;10.012;2024-03-29T07:51:30;99264.75;;;8.05;100.00
30421;BME280;17218;54.070;10.012;2024-03-29T07:53:57;99269.66;;;8.17;100.00
30421;BME280;17218;54.070;10.012;2024-03-29T07:56:24;99278.78;;;8.32;100.00
30421;BME280;17218;54.070;10.012;2024-03-29T07:58:51;99277.81;;;8.38;100.00
30421;BME280;17218;54.070;10.012;2024-03-29T08:01:19;99283.75;;;8.42;100.00
30421;BME280;17218;54.070;10.012;2024-03-29T08:03:46;99291.56;;;8.39;100.00
30421;BME280;17218;54.070;10.012;2024-03-29T08:06:14;99291.69;;;8.32;100.00
30421;BME280;17218;54.070;10.012;2024-03-29T08:08:43;99291.75;;;8.29;100.00
30421;BME280;17218;54.070;10.012;2024-03-29T08:11:10;99303.06;;;8.23;100.00
30421;BME280;17218;54.070;10.012;2024-03-29T08:13:37;99317.38;;;8.39;100.00
30421;BME280;17218;54.070;10.012;2024-03-29T08:16:04;99321.75;;;8.35;100.00
30421;BME280;17218;54.070;10.012;2024-03-29T08:18:31;99320.03;;;8.35;100.00
30421;BME280;17218;54.070;10.012;2024-03-29T08:20:58;99336.84;;;8.54;100.00
30421;BME280;17218;54.070;10.012;2024-03-29T08:23:27;99335.84;;;8.63;100.00
30421;BME280;17218;54.070;10.012;2024-03-29T08:25:54;99336.56;;;8.68;100.00
30421;BME280;17218;54.070;10.012;2024-03-29T08:28:21;99334.78;;;8.71;100.00
30421;BME280;17218;54.070;10.012;2024-03-29T08:30:57;99348.28;;;8.83;100.00
30421;BME280;17218;54.070;10.012;2024-03-29T08:33:24;99344.34;;;9.04;100.00
30421;BME280;17218;54.070;10.012;2024-03-29T08:35:50;99338.72;;;9.26;100.00
30421;BME280;17218;54.070;10.012;2024-03-29T08:38:17;99342.03;;;9.32;100.00
30421;BME280;17218;54.070;10.012;2024-03-29T08:40:45;99337.25;;;9.49;100.00
30421;BME280;17218;54.070;10.012;2024-03-29T08:43:13;99333.53;;;9.26;100.00
30421;BME280;17218;54.070;10.012;2024-03-29T08:45:40;99317.00;;;9.34;100.00
30421;BME280;17218;54.070;10.012;2024-03-29T08:48:07;99325.16;;;9.51;100.00
30421;BME280;17218;54.070;10.012;2024-03-29T08:50:34;99332.09;;;9.49;100.00
30421;BME280;17218;54.070;10.012;2024-03-29T08:53:00;99329.91;;;9.69;100.00
30421;BME280;17218;54.070;10.012;2024-03-29T08:55:28;99326.22;;;9.77;100.00
30421;BME280;17218;54.070;10.012;2024-03-29T08:57:56;99312.53;;;10.04;100.00
30421;BME280;17218;54.070;10.012;2024-03-29T09:00:23;99306.84;;;9.93;100.00
30421;BME280;17218;54.070;10.012;2024-03-29T09:02:50;99306.25;;;10.14;100.00
30421;BME280;17218;54.070;10.012;2024-03-29T09:05:16;99303.59;;;10.16;100.00
30421;BME280;17218;54.070;10.012;2024-03-29T09:07:43;99307.75;;;10.22;100.00
30421;BME280;17218;54.070;10.012;2024-03-29T09:10:10;99312.50;;;10.36;100.00
30421;BME280;17218;54.070;10.012;2024-03-29T09:12:37;99324.91;;;10.26;100.00
30421;BME280;17218;54.070;10.012;2024-03-29T09:15:05;99312.88;;;10.23;100.00
30421;BME280;17218;54.070;10.012;2024-03-29T09:17:34;99334.69;;;10.14;100.00
30421;BME280;17218;54.070;10.012;2024-03-29T09:20:00;99332.06;;;10.16;100.00
30421;BME280;17218;54.070;10.012;2024-03-29T09:22:30;99335.50;;;9.85;100.00
30421;BME280;17218;54.070;10.012;2024-03-29T09:24:56;99322.69;;;9.80;100.00
30421;BME280;17218;54.070;10.012;2024-03-29T09:27:23;99322.63;;;9.83;100.00
30421;BME280;17218;54.070;10.012;2024-03-29T09:29:49;99324.19;;;9.89;100.00
30421;BME280;17218;54.070;10.012;2024-03-29T09:32:17;99318.13;;;9.90;100.00
30421;BME280;17218;54.070;10.012;2024-03-29T09:34:45;99319.78;;;9.59;100.00
30421;BME280;17218;54.070;10.012;2024-03-29T09:37:12;99344.88;;;9.21;100.00
30421;BME280;17218;54.070;10.012;2024-03-29T09:39:38;99324.16;;;9.22;100.00
30421;BME280;17218;54.070;10.012;2024-03-29T09:42:06;99319.25;;;9.11;100.00
30421;BME280;17218;54.070;10.012;2024-03-29T09:44:34;99324.22;;;9.19;100.00
30421;BME280;17218;54.070;10.012;2024-03-29T09:47:03;99334.16;;;9.00;100.00
30421;BME280;17218;54.070;10.012;2024-03-29T09:49:32;99321.06;;;9.07;100.00
30421;BME280;17218;54.070;10.012;2024-03-29T09:51:59;99323.09;;;8.94;100.00
30421;BME280;17218;54.070;10.012;2024-03-29T09:54:27;99315.16;;;9.01;100.00
30421;BME280;17218;54.070;10.012;2024-03-29T09:56:55;99311.25;;;9.22;100.00
30421;BME280;17218;54.070;10.012;2024-03-29T09:59:22;99312.75;;;9.31;100.00
30421;BME280;17218;54.070;10.012;2024-03-29T10:01:50;99301.53;;;9.30;100.00
30421;BME280;17218;54.070;10.012;2024-03-29T10:04:18;99311.28;;;9.19;100.00
30421;BME280;17218;54.070;10.012;2024-03-29T10:06:48;99308.84;;;9.14;100.00
30421;BME280;17218;54.070;10.012;2024-03-29T10:09:17;99302.84;;;9.12;100.00
30421;BME280;17218;54.070;10.012;2024-03-29T10:11:44;99287.81;;;9.28;100.00
30421;BME280;17218;54.070;10.012;2024-03-29T10:14:11;99276.09;;;9.50;100.00
30421;BME280;17218;54.070;10.012;2024-03-29T10:16:37;99265.25;;;9.35;100.00
30421;BME280;17218;54.070;10.012;2024-03-29T10:19:04;99270.53;;;9.30;100.00
30421;BME280;17218;54.070;10.012;2024-03-29T10:21:32;99268.53;;;9.42;100.00
30421;BME280;17218;54.070;10.012;2024-03-29T10:24:00;99277.72;;;9.54;100.00
30421;BME280;17218;54.070;10.012;2024-03-29T10:26:27;99277.94;;;9.78;100.00
30421;BME280;17218;54.070;10.012;2024-03-29T10:28:54;99277.59;;;9.90;100.00
30421;BME280;17218;54.070;10.012;2024-03-29T10:31:20;99283.91;;;10.10;100.00
30421;BME280;17218;54.070;10.012;2024-03-29T10:33:47;99278.44;;;10.21;100.00
30421;BME280;17218;54.070;10.012;2024-03-29T10:36:17;99275.25;;;10.42;100.00
30421;BME280;17218;54.070;10.012;2024-03-29T10:38:43;99266.72;;;10.38;100.00
30421;BME280;17218;54.070;10.012;2024-03-29T10:41:11;99265.13;;;10.34;100.00
30421;BME280;17218;54.070;10.012;2024-03-29T10:43:38;99256.44;;;10.06;100.00
30421;BME280;17218;54.070;10.012;2024-03-29T10:46:07;99255.63;;;9.74;100.00
30421;BME280;17218;54.070;10.012;2024-03-29T10:48:35;99254.66;;;9.78;100.00
30421;BME280;17218;54.070;10.012;2024-03-29T10:51:02;99245.44;;;9.68;100.00
30421;BME280;17218;54.070;10.012;2024-03-29T10:53:29;99261.19;;;9.58;100.00
30421;BME280;17218;54.070;10.012;2024-03-29T10:55:58;99258.34;;;9.36;100.00
30421;BME280;17218;54.070;10.012;2024-03-29T10:58:32;99267.94;;;9.30;100.00
30421;BME280;17218;54.070;10.012;2024-03-29T11:01:01;99266.69;;;9.12;100.00
30421;BME280;17218;54.070;10.012;2024-03-29T11:03:35;99257.16;;;9.14;100.00
30421;BME280;17218;54.070;10.012;2024-03-29T11:06:04;99249.38;;;9.16;100.00
30421;BME280;17218;54.070;10.012;2024-03-29T11:08:33;99259.13;;;9.04;100.00
30421;BME280;17218;54.070;10.012;2024-03-29T11:11:04;99267.63;;;9.08;100.00
30421;BME280;17218;54.070;10.012;2024-03-29T11:13:36;99282.19;;;9.12;100.00
30421;BME280;17218;54.070;10.012;2024-03-29T11:16:04;99283.41;;;8.99;100.00
30421;BME280;17218;54.070;10.012;2024-03-29T11:18:31;99282.28;;;9.09;100.00
30421;BME280;17218;54.070;10.012;2024-03-29T11:21:00;99278.31;;;9.29;100.00
30421;BME280;17218;54.070;10.012;2024-03-29T11:23:31;99275.75;;;9.29;100.00
30421;BME280;17218;54.070;10.012;2024-03-29T11:25:58;99258.78;;;9.18;100.00
30421;BME280;17218;54.070;10.012;2024-03-29T11:28:27;99258.06;;;9.13;100.00
30421;BME280;17218;54.070;10.012;2024-03-29T11:30:58;99280.59;;;9.06;100.00
30421;BME280;17218;54.070;10.012;2024-03-29T11:33:31;99285.00;;;9.03;100.00
30421;BME280;17218;54.070;10.012;2024-03-29T11:35:59;99288.56;;;8.97;100.00
30421;BME280;17218;54.070;10.012;2024-03-29T11:38:30;99307.69;;;8.90;100.00
30421;BME280;17218;54.070;10.012;2024-03-29T11:41:04;99301.31;;;9.05;100.00
30421;BME280;17218;54.070;10.012;2024-03-29T11:43:31;99290.88;;;9.10;100.00
30421;BME280;17218;54.070;10.012;2024-03-29T11:46:00;99289.56;;;9.28;100.00
30421;BME280;17218;54.070;10.012;2024-03-29T11:48:29;99291.16;;;9.34;100.00
30421;BME280;17218;54.070;10.012;2024-03-29T11:50:56;99289.53;;;9.29;100.00
30421;BME280;17218;54.070;10.012;2024-03-29T11:53:24;99278.78;;;9.45;100.00
30421;BME280;17218;54.070;10.012;2024-03-29T11:55:50;99279.91;;;9.35;100.00
30421;BME280;17218;54.070;10.012;2024-03-29T11:58:20;99280.91;;;9.29;100.00
30421;BME280;17218;54.070;10.012;2024-03-29T12:00:47;99285.94;;;9.35;100.00
30421;BME280;17218;54.070;10.012;2024-03-29T12:03:15;99277.94;;;9.45;100.00
30421;BME280;17218;54.070;10.012;2024-03-29T12:05:42;99269.97;;;9.52;100.00
30421;BME280;17218;54.070;10.012;2024-03-29T12:08:09;99280.69;;;9.72;100.00
30421;BME280;17218;54.070;10.012;2024-03-29T12:10:36;99281.84;;;9.60;100.00
30421;BME280;17218;54.070;10.012;2024-03-29T12:13:04;99287.28;;;9.49;100.00
30421;BME280;17218;54.070;10.012;2024-03-29T12:15:31;99289.59;;;9.61;100.00
30421;BME280;17218;54.070;10.012;2024-03-29T12:17:58;99286.09;;;9.62;100.00
30421;BME280;17218;54.070;10.012;2024-03-29T12:20:28;99278.28;;;9.64;100.00
30421;BME280;17218;54.070;10.012;2024-03-29T12:22:55;99273.81;;;9.71;100.00
30421;BME280;17218;54.070;10.012;2024-03-29T12:25:22;99279.91;;;9.68;100.00
30421;BME280;17218;54.070;10.012;2024-03-29T12:27:49;99282.44;;;9.70;100.00
30421;BME280;17218;54.070;10.012;2024-03-29T12:30:16;99291.72;;;10.09;100.00
30421;BME280;17218;54.070;10.012;2024-03-29T12:32:43;99284.41;;;10.23;100.00
30421;BME280;17218;54.070;10.012;2024-03-29T12:35:11;99275.63;;;10.29;100.00
30421;BME280;17218;54.070;10.012;2024-03-29T12:37:47;99263.72;;;10.54;100.00
30421;BME280;17218;54.070;10.012;2024-03-29T12:40:15;99269.31;;;10.68;100.00
30421;BME280;17218;54.070;10.012;2024-03-29T12:42:47;99277.16;;;10.94;100.00
30421;BME280;17218;54.070;10.012;2024-03-29T12:45:14;99271.94;;;11.21;100.00
30421;BME280;17218;54.070;10.012;2024-03-29T12:47:40;99264.22;;;11.19;100.00
30421;BME280;17218;54.070;10.012;2024-03-29T12:50:07;99263.47;;;11.41;100.00
30421;BME280;17218;54.070;10.012;2024-03-29T12:52:39;99270.06;;;12.25;100.00
30421;BME280;17218;54.070;10.012;2024-03-29T12:55:07;99277.66;;;12.30;100.00
30421;BME280;17218;54.070;10.012;2024-03-29T12:57:33;99278.28;;;12.59;100.00